Denton, Georgia
Current Conditions -  °F | °C
As of 2:15 AM on Saturday 20 Dec 2014 (Local Time) from KAZE Reporting Station
Light Rain Light Rain  
Wind Chill: 51°   Ceiling: 8000
Heat Index: 51°   Visibility: 10mi
Dew Point: 51°   Wind: 0mph
Humidity: 99%   Direction: NA
Pressure: 30.13"   Gusts: NA
Location:  31.72°N, 82.69°W
Report Text: KAZE 200715Z AUTO 00000KT 10SM -RA OVC080 11/11 A3013 RMK AO2 T01060105
Loading
Personal Weather Stations






























Interactive Weather Map New forecast layout! Learn more

10-Day Weather Forecast

Advertisements
Track Severe Weather on mobile